ADDS METAR Data INFO
IDs: Format: Raw Decoded Include TAF

Data at: 2055 UTC 24 Jun 2017

KLBB 241953Z 14009G16KT 10SM SCT033 SCT095 26/14 A3023 RMK AO2 SLP190 T02610144
KLBB 241853Z 10007G16KT 10SM SCT028 BKN030 BKN090 BKN180 24/14 A3025 RMK AO2 SLP197 T02440144
KLBB 241753Z 13011KT 10SM SCT023 SCT075 SCT100 SCT180 22/14 A3026 RMK AO2 SLP202 T02220144 10228 20167 58007
KLBB 241725Z 12013G18KT 10SM SCT020 SCT070 BKN095 22/14 A3027 RMK AO2 T02170144
KLBB 241653Z 09012KT 10SM OVC020 22/14 A3028 RMK AO2 SLP207 BINOVC HYR CLDS VSB T02170139
KLBB 241553Z 09012KT 10SM OVC021 20/13 A3028 RMK AO2 SLP207 T02000133
KLBB 241514Z COR 10016G23KT 10SM BKN015 OVC065 20/13 A3027 RMK AO2 T02000133
KLBB 241453Z 09017G22KT 10SM OVC013 18/13 A3028 RMK AO2 PK WND 09026/1434 SLP209 BINOVC DSNT E-SE T01780133 53027
KLBB 241426Z 09015G23KT 10SM OVC014 17/13 A3027 RMK AO2 T01720133
KLBB 241403Z 06015G23KT 10SM OVC015 18/13 A3026 RMK AO2 T01780128
KLBB 241353Z 06021G25KT 10SM BKN013 BKN033 18/13 A3025 RMK AO2 SLP198 T01780128
KLBB 241316Z 04019KT 10SM BKN014 OVC033 18/14 A3024 RMK AO2 T01780139
KLBB 241253Z 05013G24KT 10SM FEW013 OVC033 17/14 A3022 RMK AO2 PK WND 05027/1227 SLP184 BINOVC HYR CLDS VSB T01720139
KLBB 241209Z 06020G26KT 10SM SCT011 OVC030 17/13 A3020 RMK AO2 PK WND 06026/1205 T01670133
KLBB 241153Z 06019G29KT 10SM BKN011 OVC030 17/13 A3020 RMK AO2 PK WND 05033/1057 SLP175 T01670133 10233 20167 53017
KLBB 241141Z 05018G30KT 10SM BKN011 OVC031 17/13 A3019 RMK AO2 PK WND 05033/1057 T01670133
KLBB 241128Z 06022G29KT 10SM BKN015 OVC031 17/13 A3019 RMK AO2 PK WND 05033/1057 T01670128
KLBB 241053Z 05019G32KT 10SM OVC032 18/12 A3016 RMK AO2 PK WND 05032/1047 SLP161 T01780122
KLBB 240953Z 04021G29KT 10SM BKN033 OVC055 18/11 A3016 RMK AO2 PK WND 04029/0936 SLP161 T01780111
KLBB 240853Z 05013G22KT 10SM FEW035 SCT042 SCT065 21/10 A3014 RMK AO2 SLP150 OCNL LTGIC DSNT NE CB DSNT NE MOV SE T02110100 51008
KLBB 240753Z 04013G22KT 10SM OVC031 22/10 A3014 RMK AO2 PK WND 05026/0657 SLP148 T02170100
KLBB 240653Z 05017G22KT 10SM BKN031 22/10 A3013 RMK AO2 PK WND 06027/0604 SLP143 T02220100
KLBB 240553Z 06019G26KT 10SM BKN030 BKN200 23/10 A3011 RMK AO2 PK WND 06029/0458 SLP137 LTG DSNT NE T02280100 10322 20228 403720228 51029
KLBB 240453Z 06019G29KT 10SM FEW220 25/09 A3010 RMK AO2 PK WND 07030/0433 SLP130 T02500094
KLBB 240353Z 07020G27KT 10SM FEW250 27/17 A3005 RMK AO2 PK WND 08027/0352 SLP115 T02720172
KLBB 240253Z 07015G22KT 10SM FEW090 SCT240 BKN300 28/18 A3002 RMK AO2 PK WND 07028/0219 SLP105 BKN LYR THN T02830178 53018
KLBB 240153Z 06016G25KT 9SM SCT090 BKN240 BKN300 30/17 A3000 RMK AO2 PK WND 07028/0107 SLP098 OCNL PTCHY BLDU ALQDS T03000167
KLBB 240053Z COR 07019G26KT 9SM FEW100 SCT200 BKN240 BKN300 32/17 A2996 RMK AO2 PK WND 06026/0045 SLP085 CB DSNT E MOV S LGT BLDU ALQDS T03170167
KLBB 232353Z 07016G27KT 9SM FEW120 SCT200 SCT250 BKN300 33/16 A2996 RMK AO2 PK WND 06027/2345 SLP084 LGT BLDU ALQDS T03280161 10372 20328 53004
KLBB 232253Z 07019G26KT 9SM FEW065 SCT250 BKN300 33/16 A2994 RMK AO2 PK WND 05029/2241 SLP079 BKN LYR THN BLDU ALQDS T03330156
KLBB 232153Z 05022G27KT 8SM FEW070 BKN300 33/16 A2994 RMK AO2 PK WND 05032/2139 SLP077 CB DSNT SE-S MOV S BLDU ALQDS T03330156
KLBB 232053Z COR 05021G29KT 7SM FEW075 BKN300 34/16 A2995 RMK AO2 PK WND 04031/2007 SLP078 CB DSNT SE-S MOV S TCU DSNT S-SW BLDU ALQDS T03390156 50002
KLBB 231953Z 05023G30KT 6SM BLDU FEW075 36/16 A2995 RMK AO2 PK WND 06030/1952 SLP077 TCU DSNT SE-SW T03560156
KLBB 231853Z 06009G19KT 9SM FEW090 SCT140 SCT300 36/13 A2995 RMK AO2 SLP075 MDT CU DSNT SE-S T03610133
KLBB 231753Z 06006KT 9SM FEW200 SCT300 37/12 A2994 RMK AO2 SLP071 HZ ALQDS T03670117 10367 20250 51014
KLBB 231653Z COR VRB05KT 10SM FEW250 SCT300 35/13 A2994 RMK AO2 SLP070 T03500128
KLBB 231553Z VRB05KT 10SM FEW250 FEW300 32/13 A2991 RMK AO2 SLP062 T03170133
KLBB 231453Z 11010KT 10SM FEW220 FEW260 FEW300 29/14 A2990 RMK AO2 SLP060 T02940139 51023
KLBB 231353Z 07010KT 10SM FEW200 SCT240 SCT260 27/14 A2988 RMK AO2 SLP055 T02720144
KLBB 231253Z 07011G19KT 10SM FEW130 SCT220 BKN250 26/14 A2987 RMK AO2 SLP052 T02560139
KLBB 231153Z 06012KT 10SM SCT090 BKN110 BKN250 26/13 A2982 RMK AO2 PK WND 05026/1129 WSHFT 1124 RAE1054 SLP033 P0000 60000 T02610133 10322 20239 50008
KLBB 231144Z 07014G19KT 10SM SCT090 BKN110 BKN250 27/13 A2982 RMK AO2 PK WND 05026/1129 WSHFT 1124 RAE1054 WSHFT 1125 P0000 T02720133
KLBB 231132Z 07011G26KT 10SM SCT095 BKN110 BKN250 26/14 A2981 RMK AO2 PK WND 05026/1129 RAE1054 WSHFT 1125 P0000 T02610139
KLBB 231053Z 35009KT 10SM -RA FEW050 BKN110 BKN250 24/16 A2986 RMK AO2 RAB36 SLP049 P0000 T02440161
KLBB 230953Z 05014KT 10SM FEW060 BKN110 OVC220 27/13 A2985 RMK AO2 RAE00 SLP041 P0000 T02670133


Page loaded:  20:55 UTC  |   01:55 PM Pacific  |   02:55 PM Mountain  |   03:55 PM Central  |   04:55 PM Eastern

 

ADVISORIES

FORECASTS

FORECASTS

OBSERVATIONS

USER TOOLS

ABOUT US